Terminal Aerodrome Forecast
Issued by NWS Duluth, MN

Home | Current Version | Previous Version | Text Only | Print | Product List | Glossary On
Versions: 1 2 3 4 5 6 7 8 9 10 11 12 13 14 15
000
FTUS43 KDLH 250536
TAFDLH
TAF
KDLH 250536Z 2506/2606 02005KT P6SM SKC
     FM251500 23006KT P6SM SCT250
     FM251900 22010G16KT P6SM SCT250
     FM260200 21008KT P6SM BKN250=

USA.gov is the U.S. government's official web portal to all federal, state and local government web resources and services.